sensor_id;sensor_type;location;lat;lon;timestamp;pressure;altitude;pressure_sealevel;temperature;humidity
47530;BME280;33272;51.922;7.730;2022-12-07T00:01:35;100772.84;;;5.76;100.00
47530;BME280;33272;51.922;7.730;2022-12-07T00:04:05;100770.75;;;5.80;100.00
47530;BME280;33272;51.922;7.730;2022-12-07T00:06:34;100766.56;;;5.81;100.00
47530;BME280;33272;51.922;7.730;2022-12-07T00:09:02;100768.91;;;5.88;100.00
47530;BME280;33272;51.922;7.730;2022-12-07T00:11:29;100765.63;;;5.89;100.00
47530;BME280;33272;51.922;7.730;2022-12-07T00:13:59;100768.63;;;5.94;100.00
47530;BME280;33272;51.922;7.730;2022-12-07T00:16:29;100765.78;;;5.91;100.00
47530;BME280;33272;51.922;7.730;2022-12-07T00:18:58;100769.81;;;5.97;100.00
47530;BME280;33272;51.922;7.730;2022-12-07T00:21:28;100772.47;;;5.99;100.00
47530;BME280;33272;51.922;7.730;2022-12-07T00:23:56;100767.53;;;6.00;100.00
47530;BME280;33272;51.922;7.730;2022-12-07T00:26:26;100766.38;;;5.97;100.00
47530;BME280;33272;51.922;7.730;2022-12-07T00:28:55;100759.75;;;5.99;100.00
47530;BME280;33272;51.922;7.730;2022-12-07T00:31:26;100757.88;;;5.96;100.00
47530;BME280;33272;51.922;7.730;2022-12-07T00:33:54;100759.34;;;5.94;100.00
47530;BME280;33272;51.922;7.730;2022-12-07T00:36:23;100752.03;;;5.97;100.00
47530;BME280;33272;51.922;7.730;2022-12-07T00:38:51;100748.44;;;5.95;100.00
47530;BME280;33272;51.922;7.730;2022-12-07T00:41:20;100748.59;;;5.97;100.00
47530;BME280;33272;51.922;7.730;2022-12-07T00:43:48;100747.41;;;5.93;100.00
47530;BME280;33272;51.922;7.730;2022-12-07T00:46:16;100748.75;;;5.90;100.00
47530;BME280;33272;51.922;7.730;2022-12-07T00:48:44;100751.00;;;5.87;100.00
47530;BME280;33272;51.922;7.730;2022-12-07T00:51:12;100739.72;;;5.74;100.00
47530;BME280;33272;51.922;7.730;2022-12-07T00:53:41;100731.63;;;5.78;100.00
47530;BME280;33272;51.922;7.730;2022-12-07T00:56:11;100731.31;;;5.75;100.00
47530;BME280;33272;51.922;7.730;2022-12-07T00:58:38;100743.75;;;5.72;100.00
47530;BME280;33272;51.922;7.730;2022-12-07T01:01:07;100737.19;;;5.66;100.00
47530;BME280;33272;51.922;7.730;2022-12-07T01:03:35;100728.44;;;5.53;100.00
47530;BME280;33272;51.922;7.730;2022-12-07T01:06:03;100739.16;;;5.60;100.00
47530;BME280;33272;51.922;7.730;2022-12-07T01:08:31;100735.66;;;5.49;100.00
47530;BME280;33272;51.922;7.730;2022-12-07T01:11:03;100732.34;;;5.50;100.00
47530;BME280;33272;51.922;7.730;2022-12-07T01:13:30;100733.84;;;5.48;100.00
47530;BME280;33272;51.922;7.730;2022-12-07T01:16:00;100734.59;;;5.47;100.00
47530;BME280;33272;51.922;7.730;2022-12-07T01:18:29;100735.34;;;5.46;100.00
47530;BME280;33272;51.922;7.730;2022-12-07T01:20:59;100738.63;;;5.45;100.00
47530;BME280;33272;51.922;7.730;2022-12-07T01:23:27;100741.91;;;5.44;100.00
47530;BME280;33272;51.922;7.730;2022-12-07T01:25:56;100737.59;;;5.43;100.00
47530;BME280;33272;51.922;7.730;2022-12-07T01:28:25;100729.81;;;5.41;100.00
47530;BME280;33272;51.922;7.730;2022-12-07T01:30:57;100739.97;;;5.41;100.00
47530;BME280;33272;51.922;7.730;2022-12-07T01:33:27;100741.34;;;5.38;100.00
47530;BME280;33272;51.922;7.730;2022-12-07T01:35:58;100745.66;;;5.39;100.00
47530;BME280;33272;51.922;7.730;2022-12-07T01:38:27;100752.28;;;5.28;100.00
47530;BME280;33272;51.922;7.730;2022-12-07T01:40:54;100747.78;;;5.25;100.00
47530;BME280;33272;51.922;7.730;2022-12-07T01:43:25;100754.97;;;5.21;100.00
47530;BME280;33272;51.922;7.730;2022-12-07T01:45:53;100753.22;;;5.11;100.00
47530;BME280;33272;51.922;7.730;2022-12-07T01:48:24;100755.59;;;5.09;100.00
47530;BME280;33272;51.922;7.730;2022-12-07T01:50:53;100746.22;;;5.00;100.00
47530;BME280;33272;51.922;7.730;2022-12-07T01:53:25;100750.84;;;4.95;100.00
47530;BME280;33272;51.922;7.730;2022-12-07T01:55:54;100752.16;;;4.92;100.00
47530;BME280;33272;51.922;7.730;2022-12-07T01:58:24;100740.25;;;4.82;100.00
47530;BME280;33272;51.922;7.730;2022-12-07T02:00:51;100744.13;;;4.78;100.00
47530;BME280;33272;51.922;7.730;2022-12-07T02:03:22;100750.25;;;4.80;100.00
47530;BME280;33272;51.922;7.730;2022-12-07T02:05:51;100749.19;;;4.78;100.00
47530;BME280;33272;51.922;7.730;2022-12-07T02:08:20;100749.97;;;4.77;100.00
47530;BME280;33272;51.922;7.730;2022-12-07T02:10:47;100750.13;;;4.70;100.00
47530;BME280;33272;51.922;7.730;2022-12-07T02:13:18;100750.72;;;4.59;100.00
47530;BME280;33272;51.922;7.730;2022-12-07T02:16:06;100747.44;;;4.51;100.00
47530;BME280;33272;51.922;7.730;2022-12-07T02:18:48;100748.19;;;4.41;100.00
47530;BME280;33272;51.922;7.730;2022-12-07T02:21:27;100740.41;;;4.31;100.00
47530;BME280;33272;51.922;7.730;2022-12-07T02:24:24;100742.63;;;4.20;100.00
47530;BME280;33272;51.922;7.730;2022-12-07T02:27:17;100739.50;;;4.13;100.00
47530;BME280;33272;51.922;7.730;2022-12-07T02:29:58;100739.91;;;4.09;100.00
47530;BME280;33272;51.922;7.730;2022-12-07T02:32:33;100742.00;;;4.05;100.00
47530;BME280;33272;51.922;7.730;2022-12-07T02:35:08;100748.38;;;3.92;100.00
47530;BME280;33272;51.922;7.730;2022-12-07T02:37:41;100737.94;;;3.89;100.00
47530;BME280;33272;51.922;7.730;2022-12-07T02:40:17;100745.09;;;3.85;100.00
47530;BME280;33272;51.922;7.730;2022-12-07T02:42:49;100749.97;;;3.83;100.00
47530;BME280;33272;51.922;7.730;2022-12-07T02:45:22;100751.44;;;3.81;100.00
47530;BME280;33272;51.922;7.730;2022-12-07T02:47:52;100742.66;;;3.78;100.00
47530;BME280;33272;51.922;7.730;2022-12-07T02:50:22;100745.06;;;3.76;100.00
47530;BME280;33272;51.922;7.730;2022-12-07T02:52:49;100736.84;;;3.70;100.00
47530;BME280;33272;51.922;7.730;2022-12-07T02:55:21;100742.66;;;3.69;100.00
47530;BME280;33272;51.922;7.730;2022-12-07T02:58:05;100736.97;;;3.63;100.00
47530;BME280;33272;51.922;7.730;2022-12-07T03:00:48;100738.88;;;3.57;100.00
47530;BME280;33272;51.922;7.730;2022-12-07T03:03:18;100738.41;;;3.52;100.00
47530;BME280;33272;51.922;7.730;2022-12-07T03:06:08;100733.59;;;3.46;100.00
47530;BME280;33272;51.922;7.730;2022-12-07T03:08:48;100733.59;;;3.38;100.00
47530;BME280;33272;51.922;7.730;2022-12-07T03:11:24;100731.31;;;3.32;100.00
47530;BME280;33272;51.922;7.730;2022-12-07T03:13:59;100730.25;;;3.30;100.00
47530;BME280;33272;51.922;7.730;2022-12-07T03:16:33;100734.88;;;3.25;100.00
47530;BME280;33272;51.922;7.730;2022-12-07T03:19:06;100736.19;;;3.22;100.00
47530;BME280;33272;51.922;7.730;2022-12-07T03:21:39;100734.06;;;3.18;100.00
47530;BME280;33272;51.922;7.730;2022-12-07T03:24:11;100722.41;;;3.11;100.00
47530;BME280;33272;51.922;7.730;2022-12-07T03:26:43;100721.53;;;3.11;100.00
47530;BME280;33272;51.922;7.730;2022-12-07T03:29:17;100726.84;;;3.05;100.00
47530;BME280;33272;51.922;7.730;2022-12-07T03:31:53;100725.97;;;3.05;100.00
47530;BME280;33272;51.922;7.730;2022-12-07T03:34:27;100724.56;;;2.99;100.00
47530;BME280;33272;51.922;7.730;2022-12-07T03:37:00;100727.28;;;3.01;100.00
47530;BME280;33272;51.922;7.730;2022-12-07T03:39:33;100720.13;;;2.97;100.00
47530;BME280;33272;51.922;7.730;2022-12-07T03:42:05;100718.91;;;2.93;100.00
47530;BME280;33272;51.922;7.730;2022-12-07T03:44:33;100721.44;;;2.93;100.00
47530;BME280;33272;51.922;7.730;2022-12-07T03:47:05;100715.00;;;2.88;100.00
47530;BME280;33272;51.922;7.730;2022-12-07T03:49:41;100719.88;;;2.87;100.00
47530;BME280;33272;51.922;7.730;2022-12-07T03:52:18;100722.28;;;2.85;100.00
47530;BME280;33272;51.922;7.730;2022-12-07T03:54:55;100720.63;;;2.86;100.00
47530;BME280;33272;51.922;7.730;2022-12-07T03:57:24;100725.69;;;2.86;100.00
47530;BME280;33272;51.922;7.730;2022-12-07T03:59:54;100721.53;;;2.86;100.00
47530;BME280;33272;51.922;7.730;2022-12-07T04:02:24;100717.66;;;2.81;100.00
47530;BME280;33272;51.922;7.730;2022-12-07T04:04:52;100720.81;;;2.87;100.00
47530;BME280;33272;51.922;7.730;2022-12-07T04:07:19;100712.78;;;2.91;100.00
47530;BME280;33272;51.922;7.730;2022-12-07T04:09:46;100713.56;;;2.99;100.00
47530;BME280;33272;51.922;7.730;2022-12-07T04:12:13;100714.78;;;3.02;100.00
47530;BME280;33272;51.922;7.730;2022-12-07T04:14:40;100720.97;;;3.13;100.00
47530;BME280;33272;51.922;7.730;2022-12-07T04:17:09;100721.00;;;3.22;100.00
47530;BME280;33272;51.922;7.730;2022-12-07T04:19:37;100722.97;;;3.33;100.00
47530;BME280;33272;51.922;7.730;2022-12-07T04:22:05;100719.00;;;3.35;100.00
47530;BME280;33272;51.922;7.730;2022-12-07T04:24:33;100722.66;;;3.30;100.00
47530;BME280;33272;51.922;7.730;2022-12-07T04:27:00;100723.47;;;3.38;100.00
47530;BME280;33272;51.922;7.730;2022-12-07T04:29:28;100718.41;;;3.38;100.00
47530;BME280;33272;51.922;7.730;2022-12-07T04:31:55;100716.16;;;3.32;100.00
47530;BME280;33272;51.922;7.730;2022-12-07T04:34:22;100721.31;;;3.25;100.00
47530;BME280;33272;51.922;7.730;2022-12-07T04:36:50;100718.69;;;3.32;100.00
47530;BME280;33272;51.922;7.730;2022-12-07T04:39:20;100723.88;;;3.34;100.00
47530;BME280;33272;51.922;7.730;2022-12-07T04:41:48;100720.00;;;3.29;100.00
47530;BME280;33272;51.922;7.730;2022-12-07T04:44:16;100721.22;;;3.32;100.00
47530;BME280;33272;51.922;7.730;2022-12-07T04:46:44;100724.63;;;3.33;100.00
47530;BME280;33272;51.922;7.730;2022-12-07T04:49:13;100725.81;;;3.36;100.00
47530;BME280;33272;51.922;7.730;2022-12-07T04:51:40;100720.34;;;3.40;100.00
47530;BME280;33272;51.922;7.730;2022-12-07T04:54:09;100724.50;;;3.31;100.00
47530;BME280;33272;51.922;7.730;2022-12-07T04:56:37;100720.94;;;3.38;100.00
47530;BME280;33272;51.922;7.730;2022-12-07T04:59:04;100729.25;;;3.37;100.00
47530;BME280;33272;51.922;7.730;2022-12-07T05:01:32;100726.13;;;3.39;100.00
47530;BME280;33272;51.922;7.730;2022-12-07T05:03:59;100732.06;;;3.31;100.00
47530;BME280;33272;51.922;7.730;2022-12-07T05:06:27;100719.25;;;3.30;100.00
47530;BME280;33272;51.922;7.730;2022-12-07T05:08:54;100719.81;;;3.27;100.00
47530;BME280;33272;51.922;7.730;2022-12-07T05:11:22;100713.13;;;3.19;100.00
47530;BME280;33272;51.922;7.730;2022-12-07T05:14:08;100720.69;;;3.19;100.00
47530;BME280;33272;51.922;7.730;2022-12-07T05:16:35;100720.78;;;3.12;100.00
47530;BME280;33272;51.922;7.730;2022-12-07T05:19:03;100726.34;;;3.16;100.00
47530;BME280;33272;51.922;7.730;2022-12-07T05:21:30;100722.63;;;3.21;100.00
47530;BME280;33272;51.922;7.730;2022-12-07T05:23:57;100723.53;;;3.22;100.00
47530;BME280;33272;51.922;7.730;2022-12-07T05:26:25;100722.78;;;3.23;100.00
47530;BME280;33272;51.922;7.730;2022-12-07T05:28:53;100720.09;;;3.21;100.00
47530;BME280;33272;51.922;7.730;2022-12-07T05:31:21;100727.97;;;3.16;100.00
47530;BME280;33272;51.922;7.730;2022-12-07T05:33:49;100725.28;;;3.14;100.00
47530;BME280;33272;51.922;7.730;2022-12-07T05:36:16;100723.16;;;3.10;100.00
47530;BME280;33272;51.922;7.730;2022-12-07T05:38:43;100723.50;;;3.13;100.00
47530;BME280;33272;51.922;7.730;2022-12-07T05:41:14;100719.25;;;3.05;100.00
47530;BME280;33272;51.922;7.730;2022-12-07T05:43:57;100710.53;;;3.10;100.00
47530;BME280;33272;51.922;7.730;2022-12-07T05:46:24;100710.47;;;3.01;100.00
47530;BME280;33272;51.922;7.730;2022-12-07T05:48:51;100701.41;;;3.04;100.00
47530;BME280;33272;51.922;7.730;2022-12-07T05:51:18;100702.13;;;3.02;100.00
47530;BME280;33272;51.922;7.730;2022-12-07T05:53:45;100694.09;;;2.98;100.00
47530;BME280;33272;51.922;7.730;2022-12-07T05:56:12;100699.47;;;3.01;100.00
47530;BME280;33272;51.922;7.730;2022-12-07T05:58:39;100703.56;;;2.92;100.00
47530;BME280;33272;51.922;7.730;2022-12-07T06:01:25;100702.25;;;2.95;100.00
47530;BME280;33272;51.922;7.730;2022-12-07T06:03:52;100699.41;;;2.92;100.00
47530;BME280;33272;51.922;7.730;2022-12-07T06:06:19;100707.75;;;2.91;100.00
47530;BME280;33272;51.922;7.730;2022-12-07T06:08:46;100701.22;;;2.93;100.00
47530;BME280;33272;51.922;7.730;2022-12-07T06:11:13;100709.25;;;2.98;100.00
47530;BME280;33272;51.922;7.730;2022-12-07T06:13:57;100716.41;;;3.02;100.00
47530;BME280;33272;51.922;7.730;2022-12-07T06:16:25;100717.81;;;3.07;100.00
47530;BME280;33272;51.922;7.730;2022-12-07T06:18:53;100715.38;;;3.00;100.00
47530;BME280;33272;51.922;7.730;2022-12-07T06:21:20;100706.75;;;2.98;100.00
47530;BME280;33272;51.922;7.730;2022-12-07T06:23:47;100697.72;;;3.09;100.00
47530;BME280;33272;51.922;7.730;2022-12-07T06:26:14;100701.41;;;3.04;100.00
47530;BME280;33272;51.922;7.730;2022-12-07T06:28:41;100699.09;;;3.14;100.00
47530;BME280;33272;51.922;7.730;2022-12-07T06:31:09;100699.13;;;3.22;100.00
47530;BME280;33272;51.922;7.730;2022-12-07T06:33:37;100705.22;;;3.24;100.00
47530;BME280;33272;51.922;7.730;2022-12-07T06:36:05;100706.16;;;3.34;100.00
47530;BME280;33272;51.922;7.730;2022-12-07T06:38:32;100713.50;;;3.39;100.00
47530;BME280;33272;51.922;7.730;2022-12-07T06:40:59;100710.97;;;3.39;100.00
47530;BME280;33272;51.922;7.730;2022-12-07T06:43:26;100712.34;;;3.44;100.00
47530;BME280;33272;51.922;7.730;2022-12-07T06:45:53;100717.09;;;3.41;100.00
47530;BME280;33272;51.922;7.730;2022-12-07T06:48:20;100713.06;;;3.43;100.00
47530;BME280;33272;51.922;7.730;2022-12-07T06:50:49;100709.91;;;3.37;100.00
47530;BME280;33272;51.922;7.730;2022-12-07T06:53:16;100709.31;;;3.31;100.00
47530;BME280;33272;51.922;7.730;2022-12-07T06:55:43;100711.94;;;3.24;100.00
47530;BME280;33272;51.922;7.730;2022-12-07T06:58:10;100719.94;;;3.20;100.00
47530;BME280;33272;51.922;7.730;2022-12-07T07:00:37;100719.31;;;3.14;100.00
47530;BME280;33272;51.922;7.730;2022-12-07T07:03:03;100723.44;;;3.05;100.00
47530;BME280;33272;51.922;7.730;2022-12-07T07:05:30;100725.56;;;2.93;100.00
47530;BME280;33272;51.922;7.730;2022-12-07T07:07:59;100721.38;;;2.85;100.00
47530;BME280;33272;51.922;7.730;2022-12-07T07:10:26;100732.81;;;2.81;100.00
47530;BME280;33272;51.922;7.730;2022-12-07T07:12:53;100729.63;;;2.75;100.00
47530;BME280;33272;51.922;7.730;2022-12-07T07:15:20;100727.94;;;2.67;100.00
47530;BME280;33272;51.922;7.730;2022-12-07T07:17:47;100733.41;;;2.63;100.00
47530;BME280;33272;51.922;7.730;2022-12-07T07:20:14;100737.72;;;2.64;100.00
47530;BME280;33272;51.922;7.730;2022-12-07T07:22:41;100729.09;;;2.62;100.00
47530;BME280;33272;51.922;7.730;2022-12-07T07:25:10;100733.66;;;2.57;100.00
47530;BME280;33272;51.922;7.730;2022-12-07T07:27:37;100734.22;;;2.54;100.00
47530;BME280;33272;51.922;7.730;2022-12-07T07:30:05;100732.03;;;2.58;100.00
47530;BME280;33272;51.922;7.730;2022-12-07T07:32:33;100738.78;;;2.66;100.00
47530;BME280;33272;51.922;7.730;2022-12-07T07:35:00;100738.53;;;2.71;100.00
47530;BME280;33272;51.922;7.730;2022-12-07T07:37:27;100742.41;;;2.76;100.00
47530;BME280;33272;51.922;7.730;2022-12-07T07:39:54;100742.31;;;2.84;100.00
47530;BME280;33272;51.922;7.730;2022-12-07T07:42:22;100746.41;;;2.90;100.00
47530;BME280;33272;51.922;7.730;2022-12-07T07:44:49;100743.28;;;2.93;100.00
47530;BME280;33272;51.922;7.730;2022-12-07T07:47:16;100737.66;;;2.95;100.00
47530;BME280;33272;51.922;7.730;2022-12-07T07:49:43;100743.78;;;2.97;100.00
47530;BME280;33272;51.922;7.730;2022-12-07T07:52:10;100736.66;;;3.02;100.00
47530;BME280;33272;51.922;7.730;2022-12-07T07:54:37;100737.66;;;2.95;100.00
47530;BME280;33272;51.922;7.730;2022-12-07T07:57:04;100749.28;;;3.02;100.00
47530;BME280;33272;51.922;7.730;2022-12-07T07:59:32;100748.41;;;3.01;100.00
47530;BME280;33272;51.922;7.730;2022-12-07T08:01:59;100746.81;;;3.11;100.00
47530;BME280;33272;51.922;7.730;2022-12-07T08:04:26;100744.47;;;3.12;100.00
47530;BME280;33272;51.922;7.730;2022-12-07T08:06:53;100749.41;;;3.19;100.00
47530;BME280;33272;51.922;7.730;2022-12-07T08:09:20;100744.78;;;3.15;100.00
47530;BME280;33272;51.922;7.730;2022-12-07T08:11:47;100744.91;;;3.17;100.00
47530;BME280;33272;51.922;7.730;2022-12-07T08:14:14;100751.19;;;3.20;100.00
47530;BME280;33272;51.922;7.730;2022-12-07T08:16:43;100749.72;;;3.22;100.00
47530;BME280;33272;51.922;7.730;2022-12-07T08:19:10;100748.41;;;3.26;100.00
47530;BME280;33272;51.922;7.730;2022-12-07T08:21:37;100754.59;;;3.21;100.00
47530;BME280;33272;51.922;7.730;2022-12-07T08:24:05;100757.72;;;3.18;100.00
47530;BME280;33272;51.922;7.730;2022-12-07T08:26:32;100749.09;;;3.16;100.00
47530;BME280;33272;51.922;7.730;2022-12-07T08:28:59;100747.72;;;3.11;100.00
47530;BME280;33272;51.922;7.730;2022-12-07T08:31:26;100744.88;;;3.08;100.00
47530;BME280;33272;51.922;7.730;2022-12-07T08:33:56;100747.06;;;3.05;100.00
47530;BME280;33272;51.922;7.730;2022-12-07T08:36:23;100750.03;;;3.01;100.00
47530;BME280;33272;51.922;7.730;2022-12-07T08:38:51;100754.03;;;2.99;100.00
47530;BME280;33272;51.922;7.730;2022-12-07T08:41:18;100746.75;;;3.02;100.00
47530;BME280;33272;51.922;7.730;2022-12-07T08:43:45;100755.09;;;3.01;100.00
47530;BME280;33272;51.922;7.730;2022-12-07T08:46:17;100747.50;;;3.01;100.00
47530;BME280;33272;51.922;7.730;2022-12-07T08:48:49;100740.25;;;3.04;100.00
47530;BME280;33272;51.922;7.730;2022-12-07T08:51:18;100749.91;;;3.08;100.00
47530;BME280;33272;51.922;7.730;2022-12-07T08:53:46;100746.72;;;3.18;100.00
47530;BME280;33272;51.922;7.730;2022-12-07T08:56:13;100746.63;;;3.25;100.00
47530;BME280;33272;51.922;7.730;2022-12-07T08:58:41;100749.03;;;3.32;100.00
47530;BME280;33272;51.922;7.730;2022-12-07T09:01:08;100751.94;;;3.53;100.00
47530;BME280;33272;51.922;7.730;2022-12-07T09:03:35;100752.47;;;3.66;100.00
47530;BME280;33272;51.922;7.730;2022-12-07T09:06:02;100754.72;;;3.80;100.00
47530;BME280;33272;51.922;7.730;2022-12-07T09:08:34;100757.34;;;3.98;100.00
47530;BME280;33272;51.922;7.730;2022-12-07T09:11:03;100753.06;;;4.14;100.00
47530;BME280;33272;51.922;7.730;2022-12-07T09:13:30;100751.25;;;4.13;100.00
47530;BME280;33272;51.922;7.730;2022-12-07T09:15:57;100743.97;;;4.25;100.00
47530;BME280;33272;51.922;7.730;2022-12-07T09:18:24;100745.31;;;4.30;100.00
47530;BME280;33272;51.922;7.730;2022-12-07T09:20:51;100755.47;;;4.38;100.00
47530;BME280;33272;51.922;7.730;2022-12-07T09:23:18;100752.22;;;4.48;100.00
47530;BME280;33272;51.922;7.730;2022-12-07T09:25:47;100754.13;;;4.59;100.00
47530;BME280;33272;51.922;7.730;2022-12-07T09:28:14;100747.00;;;4.64;100.00
47530;BME280;33272;51.922;7.730;2022-12-07T09:30:46;100749.19;;;4.70;100.00
47530;BME280;33272;51.922;7.730;2022-12-07T09:33:14;100744.00;;;4.77;100.00
47530;BME280;33272;51.922;7.730;2022-12-07T09:35:44;100740.72;;;4.78;100.00
47530;BME280;33272;51.922;7.730;2022-12-07T09:38:12;100740.72;;;4.78;100.00
47530;BME280;33272;51.922;7.730;2022-12-07T09:40:39;100739.66;;;4.84;100.00
47530;BME280;33272;51.922;7.730;2022-12-07T09:43:13;100746.53;;;4.85;100.00
47530;BME280;33272;51.922;7.730;2022-12-07T09:45:41;100742.94;;;4.83;100.00
47530;BME280;33272;51.922;7.730;2022-12-07T09:48:18;100738.75;;;4.75;100.00
47530;BME280;33272;51.922;7.730;2022-12-07T09:50:47;100739.66;;;4.76;100.00
47530;BME280;33272;51.922;7.730;2022-12-07T09:53:26;100739.53;;;4.83;100.00
47530;BME280;33272;51.922;7.730;2022-12-07T09:55:54;100739.94;;;4.79;100.00
47530;BME280;33272;51.922;7.730;2022-12-07T09:58:25;100745.66;;;4.76;100.00
47530;BME280;33272;51.922;7.730;2022-12-07T10:00:55;100749.19;;;4.78;100.00
47530;BME280;33272;51.922;7.730;2022-12-07T10:03:23;100743.25;;;4.86;100.00
47530;BME280;33272;51.922;7.730;2022-12-07T10:05:51;100745.47;;;4.92;100.00
47530;BME280;33272;51.922;7.730;2022-12-07T10:08:19;100742.31;;;4.95;100.00
47530;BME280;33272;51.922;7.730;2022-12-07T10:10:51;100736.06;;;4.91;100.00
47530;BME280;33272;51.922;7.730;2022-12-07T10:13:21;100734.41;;;4.92;100.00
47530;BME280;33272;51.922;7.730;2022-12-07T10:15:54;100731.63;;;4.80;100.00
47530;BME280;33272;51.922;7.730;2022-12-07T10:18:28;100727.56;;;4.82;100.00
47530;BME280;33272;51.922;7.730;2022-12-07T10:21:12;100726.50;;;4.88;100.00
47530;BME280;33272;51.922;7.730;2022-12-07T10:23:41;100726.22;;;4.94;100.00
47530;BME280;33272;51.922;7.730;2022-12-07T10:26:28;100725.44;;;5.04;100.00
47530;BME280;33272;51.922;7.730;2022-12-07T10:28:58;100723.50;;;5.10;100.00
47530;BME280;33272;51.922;7.730;2022-12-07T10:31:27;100724.94;;;5.25;100.00
47530;BME280;33272;51.922;7.730;2022-12-07T10:33:57;100716.88;;;5.29;100.00
47530;BME280;33272;51.922;7.730;2022-12-07T10:36:29;100722.66;;;5.46;100.00
47530;BME280;33272;51.922;7.730;2022-12-07T10:39:03;100724.91;;;5.70;100.00
47530;BME280;33272;51.922;7.730;2022-12-07T10:41:53;100721.50;;;5.70;100.00
47530;BME280;33272;51.922;7.730;2022-12-07T10:44:23;100723.72;;;5.75;100.00
47530;BME280;33272;51.922;7.730;2022-12-07T10:47:19;100727.06;;;5.57;100.00
47530;BME280;33272;51.922;7.730;2022-12-07T10:50:18;100726.88;;;5.64;100.00
47530;BME280;33272;51.922;7.730;2022-12-07T10:53:25;100714.13;;;5.81;100.00
47530;BME280;33272;51.922;7.730;2022-12-07T10:59:21;100710.31;;;5.95;100.00
47530;BME280;33272;51.922;7.730;2022-12-07T11:01:59;100704.38;;;6.14;100.00
47530;BME280;33272;51.922;7.730;2022-12-07T11:04:39;100702.63;;;6.13;100.00
47530;BME280;33272;51.922;7.730;2022-12-07T11:07:14;100702.84;;;6.24;100.00
47530;BME280;33272;51.922;7.730;2022-12-07T11:10:02;100695.13;;;6.33;100.00
47530;BME280;33272;51.922;7.730;2022-12-07T11:12:51;100693.41;;;6.23;100.00
47530;BME280;33272;51.922;7.730;2022-12-07T11:15:26;100690.19;;;6.35;100.00
47530;BME280;33272;51.922;7.730;2022-12-07T11:18:03;100685.50;;;6.39;100.00
47530;BME280;33272;51.922;7.730;2022-12-07T11:20:46;100684.34;;;6.36;100.00
47530;BME280;33272;51.922;7.730;2022-12-07T11:23:25;100680.50;;;6.49;100.00
47530;BME280;33272;51.922;7.730;2022-12-07T11:25:59;100677.94;;;6.68;100.00
47530;BME280;33272;51.922;7.730;2022-12-07T11:28:43;100665.88;;;6.76;100.00
47530;BME280;33272;51.922;7.730;2022-12-07T11:31:22;100674.16;;;6.84;100.00
47530;BME280;33272;51.922;7.730;2022-12-07T11:33:57;100681.50;;;7.00;100.00
47530;BME280;33272;51.922;7.730;2022-12-07T11:36:37;100670.31;;;6.97;100.00
47530;BME280;33272;51.922;7.730;2022-12-07T11:39:18;100668.06;;;6.82;100.00
47530;BME280;33272;51.922;7.730;2022-12-07T11:41:54;100662.03;;;6.71;100.00
47530;BME280;33272;51.922;7.730;2022-12-07T11:44:30;100659.50;;;6.71;100.00
47530;BME280;33272;51.922;7.730;2022-12-07T11:47:05;100654.63;;;6.64;100.00
47530;BME280;33272;51.922;7.730;2022-12-07T11:49:42;100658.97;;;6.46;100.00
47530;BME280;33272;51.922;7.730;2022-12-07T11:52:20;100654.31;;;6.50;100.00
47530;BME280;33272;51.922;7.730;2022-12-07T11:54:51;100661.78;;;6.49;100.00
47530;BME280;33272;51.922;7.730;2022-12-07T11:57:25;100660.84;;;6.38;100.00
47530;BME280;33272;51.922;7.730;2022-12-07T12:00:00;100644.66;;;6.46;100.00
47530;BME280;33272;51.922;7.730;2022-12-07T12:02:36;100654.09;;;6.58;100.00
47530;BME280;33272;51.922;7.730;2022-12-07T12:05:17;100652.09;;;6.64;100.00
47530;BME280;33272;51.922;7.730;2022-12-07T12:07:51;100659.63;;;6.72;100.00
47530;BME280;33272;51.922;7.730;2022-12-07T12:10:27;100652.84;;;6.63;100.00
47530;BME280;33272;51.922;7.730;2022-12-07T12:13:33;100649.63;;;6.36;100.00
47530;BME280;33272;51.922;7.730;2022-12-07T12:16:27;100642.72;;;6.44;100.00
47530;BME280;33272;51.922;7.730;2022-12-07T12:19:16;100646.47;;;6.58;100.00
47530;BME280;33272;51.922;7.730;2022-12-07T12:21:47;100644.34;;;6.62;100.00
47530;BME280;33272;51.922;7.730;2022-12-07T12:24:19;100635.63;;;6.50;100.00
47530;BME280;33272;51.922;7.730;2022-12-07T12:26:52;100634.25;;;6.54;100.00
47530;BME280;33272;51.922;7.730;2022-12-07T12:29:26;100633.66;;;6.66;100.00
47530;BME280;33272;51.922;7.730;2022-12-07T12:32:13;100632.59;;;6.83;100.00
47530;BME280;33272;51.922;7.730;2022-12-07T12:35:00;100636.34;;;6.97;100.00
47530;BME280;33272;51.922;7.730;2022-12-07T12:37:43;100630.38;;;7.07;100.00
47530;BME280;33272;51.922;7.730;2022-12-07T12:40:43;100631.16;;;6.77;100.00
47530;BME280;33272;51.922;7.730;2022-12-07T12:43:55;100618.84;;;6.52;100.00
47530;BME280;33272;51.922;7.730;2022-12-07T12:46:50;100625.72;;;6.53;100.00
47530;BME280;33272;51.922;7.730;2022-12-07T12:50:11;100619.00;;;6.54;100.00
47530;BME280;33272;51.922;7.730;2022-12-07T12:53:02;100618.28;;;6.46;100.00
47530;BME280;33272;51.922;7.730;2022-12-07T12:56:23;100617.94;;;6.52;100.00
47530;BME280;33272;51.922;7.730;2022-12-07T12:59:25;100621.25;;;6.50;100.00
47530;BME280;33272;51.922;7.730;2022-12-07T13:01:56;100620.38;;;6.50;100.00
47530;BME280;33272;51.922;7.730;2022-12-07T13:04:52;100616.31;;;6.33;100.00
47530;BME280;33272;51.922;7.730;2022-12-07T13:07:52;100616.53;;;6.26;100.00
47530;BME280;33272;51.922;7.730;2022-12-07T13:10:41;100614.63;;;6.23;100.00
47530;BME280;33272;51.922;7.730;2022-12-07T13:13:38;100607.44;;;6.09;100.00
47530;BME280;33272;51.922;7.730;2022-12-07T13:16:48;100612.63;;;6.11;100.00
47530;BME280;33272;51.922;7.730;2022-12-07T13:19:53;100606.88;;;6.03;100.00
47530;BME280;33272;51.922;7.730;2022-12-07T13:22:52;100602.69;;;6.03;100.00